sensor_id;sensor_type;location;lat;lon;timestamp;pressure;altitude;pressure_sealevel;temperature;humidity
33949;BME280;20229;49.856;19.030;2023-04-08T00:04:02;101707.78;;;3.79;97.43
33949;BME280;20229;49.856;19.030;2023-04-08T00:09:16;101707.81;;;3.76;97.20
33949;BME280;20229;49.856;19.030;2023-04-08T00:14:30;101706.96;;;3.73;97.46
33949;BME280;20229;49.856;19.030;2023-04-08T00:19:44;101717.81;;;3.68;97.67
33949;BME280;20229;49.856;19.030;2023-04-08T00:24:58;101712.43;;;3.67;97.66
33949;BME280;20229;49.856;19.030;2023-04-08T00:30:12;101717.85;;;3.65;97.61
33949;BME280;20229;49.856;19.030;2023-04-08T00:35:26;101720.55;;;3.64;97.57
33949;BME280;20229;49.856;19.030;2023-04-08T00:40:40;101727.86;;;3.57;97.73
33949;BME280;20229;49.856;19.030;2023-04-08T00:45:54;101727.03;;;3.49;97.41
33949;BME280;20229;49.856;19.030;2023-04-08T00:51:10;101724.35;;;3.46;98.22
33949;BME280;20229;49.856;19.030;2023-04-08T00:56:25;101720.77;;;3.45;97.70
33949;BME280;20229;49.856;19.030;2023-04-08T01:01:44;101732.46;;;3.46;97.52
33949;BME280;20229;49.856;19.030;2023-04-08T01:07:13;101733.44;;;3.39;98.18
33949;BME280;20229;49.856;19.030;2023-04-08T01:12:29;101738.85;;;3.35;97.44
33949;BME280;20229;49.856;19.030;2023-04-08T01:17:45;101746.03;;;3.40;97.57
33949;BME280;20229;49.856;19.030;2023-04-08T01:23:12;101740.66;;;3.37;97.59
33949;BME280;20229;49.856;19.030;2023-04-08T01:28:58;101740.76;;;3.29;98.37
33949;BME280;20229;49.856;19.030;2023-04-08T01:34:14;101740.73;;;3.30;98.60
33949;BME280;20229;49.856;19.030;2023-04-08T01:39:30;101748.84;;;3.27;98.54
33949;BME280;20229;49.856;19.030;2023-04-08T01:44:44;101754.20;;;3.33;98.37
33949;BME280;20229;49.856;19.030;2023-04-08T01:49:59;101752.41;;;3.32;98.17
33949;BME280;20229;49.856;19.030;2023-04-08T01:55:15;101758.66;;;3.34;97.66
33949;BME280;20229;49.856;19.030;2023-04-08T02:00:30;101760.46;;;3.37;98.34
33949;BME280;20229;49.856;19.030;2023-04-08T02:05:44;101764.91;;;3.41;97.74
33949;BME280;20229;49.856;19.030;2023-04-08T02:10:59;101772.14;;;3.38;97.54
33949;BME280;20229;49.856;19.030;2023-04-08T02:16:21;101765.84;;;3.37;98.15
33949;BME280;20229;49.856;19.030;2023-04-08T02:21:43;101765.82;;;3.39;97.76
33949;BME280;20229;49.856;19.030;2023-04-08T02:26:59;101768.55;;;3.37;97.95
33949;BME280;20229;49.856;19.030;2023-04-08T02:32:15;101774.87;;;3.34;97.87
33949;BME280;20229;49.856;19.030;2023-04-08T02:37:30;101773.03;;;3.38;98.10
33949;BME280;20229;49.856;19.030;2023-04-08T02:42:44;101775.75;;;3.35;98.19
33949;BME280;20229;49.856;19.030;2023-04-08T02:47:59;101782.05;;;3.37;98.14
33949;BME280;20229;49.856;19.030;2023-04-08T02:53:14;101786.55;;;3.35;97.90
33949;BME280;20229;49.856;19.030;2023-04-08T02:58:29;101784.74;;;3.35;97.80
33949;BME280;20229;49.856;19.030;2023-04-08T03:03:42;101785.70;;;3.33;98.05
33949;BME280;20229;49.856;19.030;2023-04-08T03:08:56;101788.35;;;3.34;97.95
33949;BME280;20229;49.856;19.030;2023-04-08T03:14:10;101804.58;;;3.31;97.96
33949;BME280;20229;49.856;19.030;2023-04-08T03:19:24;101801.88;;;3.31;98.20
33949;BME280;20229;49.856;19.030;2023-04-08T03:24:38;101803.69;;;3.31;97.62
33949;BME280;20229;49.856;19.030;2023-04-08T03:29:52;101812.68;;;3.31;98.11
33949;BME280;20229;49.856;19.030;2023-04-08T03:35:07;101816.27;;;3.33;98.11
33949;BME280;20229;49.856;19.030;2023-04-08T03:40:21;101820.77;;;3.31;97.58
33949;BME280;20229;49.856;19.030;2023-04-08T03:45:35;101819.04;;;3.26;97.62
33949;BME280;20229;49.856;19.030;2023-04-08T03:50:49;101823.57;;;3.22;98.00
33949;BME280;20229;49.856;19.030;2023-04-08T03:56:05;101821.80;;;3.18;98.33
33949;BME280;20229;49.856;19.030;2023-04-08T04:01:20;101834.38;;;3.19;97.83
33949;BME280;20229;49.856;19.030;2023-04-08T04:06:34;101841.56;;;3.20;97.50
33949;BME280;20229;49.856;19.030;2023-04-08T04:11:48;101856.89;;;3.18;97.95
33949;BME280;20229;49.856;19.030;2023-04-08T04:17:03;101852.41;;;3.16;97.96
33949;BME280;20229;49.856;19.030;2023-04-08T04:22:16;101855.09;;;3.19;97.36
33949;BME280;20229;49.856;19.030;2023-04-08T04:27:30;101852.38;;;3.17;98.24
33949;BME280;20229;49.856;19.030;2023-04-08T04:32:44;101864.04;;;3.21;98.11
33949;BME280;20229;49.856;19.030;2023-04-08T04:37:58;101863.09;;;3.29;98.22
33949;BME280;20229;49.856;19.030;2023-04-08T04:43:12;101867.54;;;3.32;97.45
33949;BME280;20229;49.856;19.030;2023-04-08T04:48:26;101877.43;;;3.34;97.88
33949;BME280;20229;49.856;19.030;2023-04-08T04:53:40;101871.01;;;3.51;97.87
33949;BME280;20229;49.856;19.030;2023-04-08T04:58:53;101882.67;;;3.53;96.84
33949;BME280;20229;49.856;19.030;2023-04-08T05:04:09;101881.75;;;3.55;96.55
33949;BME280;20229;49.856;19.030;2023-04-08T05:09:23;101897.91;;;3.62;96.43
33949;BME280;20229;49.856;19.030;2023-04-08T05:14:37;101896.09;;;3.62;96.20
33949;BME280;20229;49.856;19.030;2023-04-08T05:19:51;101897.93;;;3.58;96.37
33949;BME280;20229;49.856;19.030;2023-04-08T05:25:06;101913.24;;;3.58;96.06
33949;BME280;20229;49.856;19.030;2023-04-08T05:30:20;101913.24;;;3.58;96.09
33949;BME280;20229;49.856;19.030;2023-04-08T05:35:34;101912.39;;;3.51;95.64
33949;BME280;20229;49.856;19.030;2023-04-08T05:40:48;101934.89;;;3.49;95.42
33949;BME280;20229;49.856;19.030;2023-04-08T05:46:06;101941.16;;;3.57;95.72
33949;BME280;20229;49.856;19.030;2023-04-08T05:51:20;101941.98;;;3.65;95.47
33949;BME280;20229;49.856;19.030;2023-04-08T05:56:34;101944.59;;;3.74;94.48
33949;BME280;20229;49.856;19.030;2023-04-08T06:01:50;101952.77;;;3.64;94.22
33949;BME280;20229;49.856;19.030;2023-04-08T06:07:05;101956.34;;;3.70;94.32
33949;BME280;20229;49.856;19.030;2023-04-08T06:12:21;101964.45;;;3.67;94.22
33949;BME280;20229;49.856;19.030;2023-04-08T06:17:38;101968.08;;;3.68;94.37
33949;BME280;20229;49.856;19.030;2023-04-08T06:22:51;101964.41;;;3.75;94.08
33949;BME280;20229;49.856;19.030;2023-04-08T06:28:05;101970.60;;;3.88;94.38
33949;BME280;20229;49.856;19.030;2023-04-08T06:33:19;101983.04;;;4.05;93.11
33949;BME280;20229;49.856;19.030;2023-04-08T06:38:34;101980.97;;;4.34;92.65
33949;BME280;20229;49.856;19.030;2023-04-08T06:43:48;101983.56;;;4.46;91.75
33949;BME280;20229;49.856;19.030;2023-04-08T06:49:02;101994.46;;;4.37;91.63
33949;BME280;20229;49.856;19.030;2023-04-08T06:54:18;101999.07;;;4.24;92.50
33949;BME280;20229;49.856;19.030;2023-04-08T06:59:32;102000.83;;;4.29;92.83
33949;BME280;20229;49.856;19.030;2023-04-08T07:04:47;102006.16;;;4.37;92.36
33949;BME280;20229;49.856;19.030;2023-04-08T07:10:02;102024.24;;;4.30;91.08
33949;BME280;20229;49.856;19.030;2023-04-08T07:15:17;102034.16;;;4.30;91.44
33949;BME280;20229;49.856;19.030;2023-04-08T07:20:31;102040.39;;;4.40;91.33
33949;BME280;20229;49.856;19.030;2023-04-08T07:25:45;102046.64;;;4.46;91.54
33949;BME280;20229;49.856;19.030;2023-04-08T07:31:09;102050.96;;;4.63;91.40
33949;BME280;20229;49.856;19.030;2023-04-08T07:36:23;102051.52;;;4.94;89.29
33949;BME280;20229;49.856;19.030;2023-04-08T07:41:37;102050.48;;;5.07;88.46
33949;BME280;20229;49.856;19.030;2023-04-08T07:46:51;102054.07;;;5.09;88.07
33949;BME280;20229;49.856;19.030;2023-04-08T07:52:05;102060.48;;;5.00;88.43
33949;BME280;20229;49.856;19.030;2023-04-08T07:57:19;102057.63;;;5.11;87.97
33949;BME280;20229;49.856;19.030;2023-04-08T08:02:33;102057.28;;;5.39;87.22
33949;BME280;20229;49.856;19.030;2023-04-08T08:07:48;102057.69;;;5.74;86.66
33949;BME280;20229;49.856;19.030;2023-04-08T08:13:04;102062.12;;;5.80;84.47
33949;BME280;20229;49.856;19.030;2023-04-08T08:18:18;102068.85;;;6.13;85.74
33949;BME280;20229;49.856;19.030;2023-04-08T08:23:33;102061.90;;;6.50;84.58
33949;BME280;20229;49.856;19.030;2023-04-08T08:28:46;102056.70;;;7.30;83.79
33949;BME280;20229;49.856;19.030;2023-04-08T08:34:00;102055.28;;;7.93;77.30
33949;BME280;20229;49.856;19.030;2023-04-08T08:39:15;102051.61;;;8.67;81.85
33949;BME280;20229;49.856;19.030;2023-04-08T08:44:29;102058.10;;;9.56;77.65
33949;BME280;20229;49.856;19.030;2023-04-08T08:49:44;102067.79;;;9.67;75.89
33949;BME280;20229;49.856;19.030;2023-04-08T08:54:59;102076.56;;;9.47;73.07
33949;BME280;20229;49.856;19.030;2023-04-08T09:00:15;102082.85;;;9.19;76.46
33949;BME280;20229;49.856;19.030;2023-04-08T09:05:36;102074.53;;;9.24;75.21
33949;BME280;20229;49.856;19.030;2023-04-08T09:10:51;102084.14;;;9.67;74.96
33949;BME280;20229;49.856;19.030;2023-04-08T09:16:08;102080.40;;;9.99;71.56
33949;BME280;20229;49.856;19.030;2023-04-08T09:21:22;102082.05;;;10.04;73.30
33949;BME280;20229;49.856;19.030;2023-04-08T09:26:45;102092.92;;;10.34;72.57
33949;BME280;20229;49.856;19.030;2023-04-08T09:37:57;102105.84;;;10.29;68.37
33949;BME280;20229;49.856;19.030;2023-04-08T09:43:12;102108.48;;;10.59;68.80
33949;BME280;20229;49.856;19.030;2023-04-08T09:48:36;102104.80;;;11.36;67.09
33949;BME280;20229;49.856;19.030;2023-04-08T09:53:58;102110.19;;;11.86;66.58
33949;BME280;20229;49.856;19.030;2023-04-08T09:59:14;102109.41;;;12.06;64.66
33949;BME280;20229;49.856;19.030;2023-04-08T10:04:31;102114.46;;;11.70;64.09
33949;BME280;20229;49.856;19.030;2023-04-08T10:09:48;102104.22;;;11.75;62.86
33949;BME280;20229;49.856;19.030;2023-04-08T10:25:55;102101.76;;;12.36;59.28
33949;BME280;20229;49.856;19.030;2023-04-08T10:31:18;102107.51;;;12.52;59.88
33949;BME280;20229;49.856;19.030;2023-04-08T10:36:33;102101.10;;;12.74;56.09
33949;BME280;20229;49.856;19.030;2023-04-08T10:41:49;102090.08;;;12.96;56.51
33949;BME280;20229;49.856;19.030;2023-04-08T10:47:03;102089.36;;;13.33;56.87
33949;BME280;20229;49.856;19.030;2023-04-08T10:52:18;102088.10;;;13.20;56.64
33949;BME280;20229;49.856;19.030;2023-04-08T10:57:33;102094.68;;;12.95;57.50
33949;BME280;20229;49.856;19.030;2023-04-08T11:02:47;102092.21;;;13.09;54.83
33949;BME280;20229;49.856;19.030;2023-04-08T11:08:01;102092.02;;;12.94;53.84
33949;BME280;20229;49.856;19.030;2023-04-08T11:13:16;102086.92;;;13.46;54.56
33949;BME280;20229;49.856;19.030;2023-04-08T11:18:30;102076.74;;;13.68;52.43
33949;BME280;20229;49.856;19.030;2023-04-08T11:23:48;102078.21;;;13.94;53.03
33949;BME280;20229;49.856;19.030;2023-04-08T11:29:04;102072.09;;;14.25;49.37
33949;BME280;20229;49.856;19.030;2023-04-08T11:34:22;102079.04;;;13.96;51.76
33949;BME280;20229;49.856;19.030;2023-04-08T11:39:43;102086.42;;;14.13;52.03
33949;BME280;20229;49.856;19.030;2023-04-08T11:44:57;102085.16;;;14.20;52.31
33949;BME280;20229;49.856;19.030;2023-04-08T11:50:11;102085.84;;;13.87;53.81
33949;BME280;20229;49.856;19.030;2023-04-08T11:55:30;102088.24;;;13.37;52.30
33949;BME280;20229;49.856;19.030;2023-04-08T12:00:44;102089.55;;;13.08;54.46
33949;BME280;20229;49.856;19.030;2023-04-08T12:05:58;102081.08;;;12.72;55.83
33949;BME280;20229;49.856;19.030;2023-04-08T12:11:12;102076.09;;;12.81;55.26
33949;BME280;20229;49.856;19.030;2023-04-08T12:16:28;102083.15;;;12.66;56.72
33949;BME280;20229;49.856;19.030;2023-04-08T12:21:42;102076.66;;;12.47;57.31
33949;BME280;20229;49.856;19.030;2023-04-08T12:26:57;102078.48;;;12.26;58.11
33949;BME280;20229;49.856;19.030;2023-04-08T12:32:11;102077.08;;;12.16;57.35
33949;BME280;20229;49.856;19.030;2023-04-08T12:37:25;102076.31;;;12.12;57.99
33949;BME280;20229;49.856;19.030;2023-04-08T12:42:39;102087.30;;;12.11;57.08
33949;BME280;20229;49.856;19.030;2023-04-08T12:47:53;102082.55;;;12.16;58.19
33949;BME280;20229;49.856;19.030;2023-04-08T12:53:07;102086.23;;;12.15;56.84
33949;BME280;20229;49.856;19.030;2023-04-08T12:58:22;102088.51;;;12.04;58.57
33949;BME280;20229;49.856;19.030;2023-04-08T13:03:37;102089.13;;;11.88;58.73
33949;BME280;20229;49.856;19.030;2023-04-08T13:08:51;102102.95;;;11.85;59.22
33949;BME280;20229;49.856;19.030;2023-04-08T13:14:06;102101.66;;;11.70;59.04
33949;BME280;20229;49.856;19.030;2023-04-08T13:19:20;102098.86;;;11.72;60.44
33949;BME280;20229;49.856;19.030;2023-04-08T13:24:34;102094.27;;;11.72;58.67
33949;BME280;20229;49.856;19.030;2023-04-08T13:29:48;102100.28;;;11.82;59.49
33949;BME280;20229;49.856;19.030;2023-04-08T13:35:03;102103.78;;;11.87;58.85
33949;BME280;20229;49.856;19.030;2023-04-08T13:40:17;102108.57;;;11.81;59.56
33949;BME280;20229;49.856;19.030;2023-04-08T13:45:31;102111.84;;;11.67;60.09
33949;BME280;20229;49.856;19.030;2023-04-08T13:50:45;102106.71;;;11.81;60.07
33949;BME280;20229;49.856;19.030;2023-04-08T13:55:59;102115.98;;;11.54;58.19
33949;BME280;20229;49.856;19.030;2023-04-08T14:01:13;102110.37;;;11.33;59.89
33949;BME280;20229;49.856;19.030;2023-04-08T14:06:27;102119.05;;;11.21;60.71
33949;BME280;20229;49.856;19.030;2023-04-08T14:11:42;102119.82;;;10.99;61.96
33949;BME280;20229;49.856;19.030;2023-04-08T14:16:56;102120.23;;;10.87;63.13
33949;BME280;20229;49.856;19.030;2023-04-08T14:22:09;102121.08;;;10.89;63.67
33949;BME280;20229;49.856;19.030;2023-04-08T14:27:25;102120.09;;;10.65;63.81
33949;BME280;20229;49.856;19.030;2023-04-08T14:32:40;102121.84;;;10.68;65.50
33949;BME280;20229;49.856;19.030;2023-04-08T14:37:54;102118.66;;;10.80;65.89
33949;BME280;20229;49.856;19.030;2023-04-08T14:43:08;102121.40;;;10.80;65.40
33949;BME280;20229;49.856;19.030;2023-04-08T14:48:22;102115.52;;;10.66;65.56
33949;BME280;20229;49.856;19.030;2023-04-08T14:53:44;102111.84;;;10.40;67.25
33949;BME280;20229;49.856;19.030;2023-04-08T14:58:58;102116.61;;;10.34;67.84
33949;BME280;20229;49.856;19.030;2023-04-08T15:04:11;102115.43;;;10.13;69.15
33949;BME280;20229;49.856;19.030;2023-04-08T15:09:25;102120.49;;;9.97;68.95
33949;BME280;20229;49.856;19.030;2023-04-08T15:14:39;102118.52;;;9.72;70.16
33949;BME280;20229;49.856;19.030;2023-04-08T15:19:53;102122.23;;;9.70;70.54
33949;BME280;20229;49.856;19.030;2023-04-08T15:25:07;102126.34;;;9.53;70.52
33949;BME280;20229;49.856;19.030;2023-04-08T15:30:21;102123.04;;;9.42;70.95
33949;BME280;20229;49.856;19.030;2023-04-08T15:35:38;102131.28;;;9.41;70.87
33949;BME280;20229;49.856;19.030;2023-04-08T15:40:52;102131.36;;;9.38;70.76
33949;BME280;20229;49.856;19.030;2023-04-08T15:46:05;102136.48;;;9.17;71.34
33949;BME280;20229;49.856;19.030;2023-04-08T15:51:19;102149.52;;;9.04;71.93
33949;BME280;20229;49.856;19.030;2023-04-08T15:56:34;102144.50;;;8.89;72.30
33949;BME280;20229;49.856;19.030;2023-04-08T16:01:48;102147.56;;;8.77;72.50
33949;BME280;20229;49.856;19.030;2023-04-08T16:07:02;102151.47;;;8.65;72.85
33949;BME280;20229;49.856;19.030;2023-04-08T16:12:17;102154.44;;;8.56;73.24
33949;BME280;20229;49.856;19.030;2023-04-08T16:17:32;102156.35;;;8.52;73.03
33949;BME280;20229;49.856;19.030;2023-04-08T16:22:48;102148.45;;;8.42;73.24
33949;BME280;20229;49.856;19.030;2023-04-08T16:28:03;102157.87;;;8.25;73.30
33949;BME280;20229;49.856;19.030;2023-04-08T16:33:18;102156.10;;;8.23;74.33
33949;BME280;20229;49.856;19.030;2023-04-08T16:38:42;102161.59;;;8.21;74.47
33949;BME280;20229;49.856;19.030;2023-04-08T16:43:56;102165.39;;;8.14;74.51
33949;BME280;20229;49.856;19.030;2023-04-08T16:49:11;102158.25;;;8.08;75.32
33949;BME280;20229;49.856;19.030;2023-04-08T16:54:24;102177.58;;;7.96;74.65
33949;BME280;20229;49.856;19.030;2023-04-08T16:59:38;102183.34;;;7.81;75.69
33949;BME280;20229;49.856;19.030;2023-04-08T17:04:52;102197.16;;;7.70;76.63
33949;BME280;20229;49.856;19.030;2023-04-08T17:10:08;102192.76;;;7.64;76.82
33949;BME280;20229;49.856;19.030;2023-04-08T17:15:23;102197.26;;;7.65;76.80
33949;BME280;20229;49.856;19.030;2023-04-08T17:20:36;102200.97;;;7.61;76.53
33949;BME280;20229;49.856;19.030;2023-04-08T17:25:50;102206.57;;;7.54;76.87
33949;BME280;20229;49.856;19.030;2023-04-08T17:31:06;102206.68;;;7.48;77.74
33949;BME280;20229;49.856;19.030;2023-04-08T17:36:20;102213.15;;;7.42;78.34
33949;BME280;20229;49.856;19.030;2023-04-08T17:41:34;102220.58;;;7.31;77.91
33949;BME280;20229;49.856;19.030;2023-04-08T17:46:49;102227.09;;;7.22;78.77
33949;BME280;20229;49.856;19.030;2023-04-08T17:52:04;102230.84;;;7.13;79.25
33949;BME280;20229;49.856;19.030;2023-04-08T17:57:18;102233.70;;;7.07;79.47
33949;BME280;20229;49.856;19.030;2023-04-08T18:02:32;102241.05;;;6.99;79.68
33949;BME280;20229;49.856;19.030;2023-04-08T18:07:47;102238.48;;;6.91;80.44
33949;BME280;20229;49.856;19.030;2023-04-08T18:13:01;102235.95;;;6.82;80.88
33949;BME280;20229;49.856;19.030;2023-04-08T18:18:15;102254.09;;;6.79;80.94
33949;BME280;20229;49.856;19.030;2023-04-08T18:23:32;102247.87;;;6.70;81.32
33949;BME280;20229;49.856;19.030;2023-04-08T18:28:47;102254.30;;;6.65;81.75
33949;BME280;20229;49.856;19.030;2023-04-08T18:34:00;102259.78;;;6.60;81.85
33949;BME280;20229;49.856;19.030;2023-04-08T18:39:15;102266.18;;;6.58;81.96
33949;BME280;20229;49.856;19.030;2023-04-08T18:44:29;102269.83;;;6.55;82.43
33949;BME280;20229;49.856;19.030;2023-04-08T18:49:43;102284.36;;;6.51;83.21
33949;BME280;20229;49.856;19.030;2023-04-08T18:54:57;102282.61;;;6.47;82.78
33949;BME280;20229;49.856;19.030;2023-04-08T19:00:12;102280.84;;;6.43;82.65
33949;BME280;20229;49.856;19.030;2023-04-08T19:05:26;102280.05;;;6.36;83.66
33949;BME280;20229;49.856;19.030;2023-04-08T19:10:41;102282.84;;;6.30;83.78
33949;BME280;20229;49.856;19.030;2023-04-08T19:15:55;102287.45;;;6.23;84.01
33949;BME280;20229;49.856;19.030;2023-04-08T19:21:09;102285.70;;;6.19;84.23
33949;BME280;20229;49.856;19.030;2023-04-08T19:26:25;102292.98;;;6.14;84.83
33949;BME280;20229;49.856;19.030;2023-04-08T19:31:38;102290.33;;;6.11;84.72
33949;BME280;20229;49.856;19.030;2023-04-08T19:36:53;102285.83;;;6.07;85.42
33949;BME280;20229;49.856;19.030;2023-04-08T19:42:08;102275.96;;;6.05;85.17
33949;BME280;20229;49.856;19.030;2023-04-08T19:47:25;102281.41;;;6.02;86.01
33949;BME280;20229;49.856;19.030;2023-04-08T19:52:39;102277.84;;;5.98;85.83
33949;BME280;20229;49.856;19.030;2023-04-08T19:57:53;102284.22;;;5.94;86.42
33949;BME280;20229;49.856;19.030;2023-04-08T20:03:08;102283.30;;;5.92;86.50
33949;BME280;20229;49.856;19.030;2023-04-08T20:08:21;102289.63;;;5.91;86.54
33949;BME280;20229;49.856;19.030;2023-04-08T20:13:35;102285.17;;;5.85;86.98
33949;BME280;20229;49.856;19.030;2023-04-08T20:18:49;102289.73;;;5.82;86.48
33949;BME280;20229;49.856;19.030;2023-04-08T20:24:03;102293.37;;;5.81;87.66
33949;BME280;20229;49.856;19.030;2023-04-08T20:29:16;102293.43;;;5.74;87.42
33949;BME280;20229;49.856;19.030;2023-04-08T20:34:30;102293.46;;;5.73;87.77
33949;BME280;20229;49.856;19.030;2023-04-08T20:39:44;102289.88;;;5.69;87.71
33949;BME280;20229;49.856;19.030;2023-04-08T20:44:58;102294.37;;;5.70;87.67
33949;BME280;20229;49.856;19.030;2023-04-08T20:50:13;102299.84;;;5.69;87.90
33949;BME280;20229;49.856;19.030;2023-04-08T20:55:27;102304.32;;;5.68;88.01
33949;BME280;20229;49.856;19.030;2023-04-08T21:00:41;102301.61;;;5.68;88.74
33949;BME280;20229;49.856;19.030;2023-04-08T21:05:55;102311.59;;;5.66;88.87
33949;BME280;20229;49.856;19.030;2023-04-08T21:11:09;102306.19;;;5.62;88.72
33949;BME280;20229;49.856;19.030;2023-04-08T21:16:23;102300.78;;;5.63;89.14
33949;BME280;20229;49.856;19.030;2023-04-08T21:21:37;102301.70;;;5.61;89.01
33949;BME280;20229;49.856;19.030;2023-04-08T21:26:52;102306.26;;;5.59;89.36
33949;BME280;20229;49.856;19.030;2023-04-08T21:32:06;102302.66;;;5.57;89.41
33949;BME280;20229;49.856;19.030;2023-04-08T21:37:20;102299.04;;;5.55;89.12
33949;BME280;20229;49.856;19.030;2023-04-08T21:42:35;102300.88;;;5.51;89.52
33949;BME280;20229;49.856;19.030;2023-04-08T21:47:48;102302.74;;;5.49;89.66
33949;BME280;20229;49.856;19.030;2023-04-08T21:53:04;102295.55;;;5.45;89.84
33949;BME280;20229;49.856;19.030;2023-04-08T21:58:18;102291.03;;;5.44;89.95
33949;BME280;20229;49.856;19.030;2023-04-08T22:03:32;102294.69;;;5.41;89.79
33949;BME280;20229;49.856;19.030;2023-04-08T22:08:46;102293.80;;;5.41;90.09
33949;BME280;20229;49.856;19.030;2023-04-08T22:14:01;102289.30;;;5.37;90.23
33949;BME280;20229;49.856;19.030;2023-04-08T22:19:16;102299.27;;;5.35;90.51
33949;BME280;20229;49.856;19.030;2023-04-08T22:24:29;102280.36;;;5.30;90.61
33949;BME280;20229;49.856;19.030;2023-04-08T22:29:43;102279.43;;;5.30;90.35
33949;BME280;20229;49.856;19.030;2023-04-08T22:34:57;102288.51;;;5.27;90.25
33949;BME280;20229;49.856;19.030;2023-04-08T22:40:11;102290.33;;;5.26;90.54
33949;BME280;20229;49.856;19.030;2023-04-08T22:45:25;102284.03;;;5.21;90.73
33949;BME280;20229;49.856;19.030;2023-04-08T22:50:42;102290.36;;;5.20;91.20
33949;BME280;20229;49.856;19.030;2023-04-08T22:55:57;102297.59;;;5.18;91.59
33949;BME280;20229;49.856;19.030;2023-04-08T23:01:13;102297.63;;;5.17;91.58
33949;BME280;20229;49.856;19.030;2023-04-08T23:06:29;102294.02;;;5.16;91.61
33949;BME280;20229;49.856;19.030;2023-04-08T23:11:45;102294.07;;;5.10;92.01
33949;BME280;20229;49.856;19.030;2023-04-08T23:16:58;102293.19;;;5.05;91.98
33949;BME280;20229;49.856;19.030;2023-04-08T23:22:12;102282.41;;;5.00;92.02
33949;BME280;20229;49.856;19.030;2023-04-08T23:27:26;102289.63;;;5.00;92.01
33949;BME280;20229;49.856;19.030;2023-04-08T23:32:40;102285.12;;;5.00;92.40
33949;BME280;20229;49.856;19.030;2023-04-08T23:37:54;102282.41;;;5.00;92.50
33949;BME280;20229;49.856;19.030;2023-04-08T23:43:08;102286.93;;;5.00;92.62
33949;BME280;20229;49.856;19.030;2023-04-08T23:48:22;102289.66;;;4.98;92.63
33949;BME280;20229;49.856;19.030;2023-04-08T23:53:36;102289.63;;;5.00;92.45
33949;BME280;20229;49.856;19.030;2023-04-08T23:58:51;102283.30;;;5.01;92.56
